Řízení letového provozu České republiky
Letiste: LKLN Aktualizace: 20.06.2018 07:00:06  UTC
 METAR LKLN 20.06. 07:00 ...
METAR LKLN 200700Z AUTO 07003KT 010V110 9999 OVC069 21/16 Q1024=